createdAt,value
2022-10-02T00:00:37.512Z,14.71
2022-10-02T00:04:01.450Z,14.58
2022-10-02T00:07:32.976Z,14.48
2022-10-02T00:11:06.003Z,14.51
2022-10-02T00:14:39.840Z,14.44
2022-10-02T00:18:12.381Z,14.45
2022-10-02T00:21:40.784Z,14.43
2022-10-02T00:25:22.507Z,14.47
2022-10-02T00:29:02.441Z,14.43
2022-10-02T00:32:38.959Z,14.23
2022-10-02T00:36:06.404Z,14.19
2022-10-02T00:40:15.198Z,14.26
2022-10-02T00:43:53.641Z,14.20
2022-10-02T00:47:45.969Z,14.20
2022-10-02T00:51:29.264Z,14.13
2022-10-02T00:55:09.515Z,14.22
2022-10-02T00:59:15.953Z,14.30
2022-10-02T01:02:40.168Z,14.12
2022-10-02T01:06:02.081Z,13.95
2022-10-02T01:09:26.554Z,13.99
2022-10-02T01:12:52.334Z,13.86
2022-10-02T01:16:17.909Z,14.01
2022-10-02T01:19:41.512Z,13.85
2022-10-02T01:23:33.426Z,13.89
2022-10-02T01:26:57.289Z,14.01
2022-10-02T01:30:20.548Z,13.85
2022-10-02T01:33:48.408Z,13.85
2022-10-02T01:37:10.807Z,13.95
2022-10-02T01:40:35.099Z,14.03
2022-10-02T01:44:01.520Z,13.85
2022-10-02T01:47:38.868Z,13.82
2022-10-02T01:51:21.702Z,13.83
2022-10-02T01:55:08.011Z,13.75
2022-10-02T01:58:44.665Z,13.85
2022-10-02T02:02:27.061Z,13.99
2022-10-02T02:06:32.857Z,14.10
2022-10-02T02:10:14.087Z,14.12
2022-10-02T02:13:51.902Z,14.19
2022-10-02T02:17:53.966Z,14.24
2022-10-02T02:21:30.300Z,14.17
2022-10-02T02:24:58.062Z,14.17
2022-10-02T02:28:22.197Z,14.17
2022-10-02T02:31:53.333Z,14.20
2022-10-02T02:35:27.428Z,14.24
2022-10-02T02:38:53.305Z,14.26
2022-10-02T02:42:25.834Z,14.29
2022-10-02T02:45:53.788Z,14.27
2022-10-02T02:49:16.152Z,14.29
2022-10-02T02:52:42.625Z,14.26
2022-10-02T02:56:08.290Z,14.24
2022-10-02T02:59:35.744Z,14.22
2022-10-02T03:02:59.534Z,14.23
2022-10-02T03:06:21.797Z,14.26
2022-10-02T03:09:58.104Z,14.26
2022-10-02T03:13:32.052Z,14.27
2022-10-02T03:17:05.744Z,14.27
2022-10-02T03:20:47.724Z,14.33
2022-10-02T03:24:39.330Z,14.38
2022-10-02T03:28:07.642Z,14.34
2022-10-02T03:31:35.035Z,14.43
2022-10-02T03:34:57.643Z,14.48
2022-10-02T03:38:21.426Z,14.52
2022-10-02T03:41:45.534Z,14.50
2022-10-02T03:45:07.522Z,14.51
2022-10-02T03:48:29.052Z,14.48
2022-10-02T03:51:52.774Z,14.50
2022-10-02T03:55:25.966Z,14.51
2022-10-02T03:58:52.729Z,14.48
2022-10-02T04:02:39.906Z,14.52
2022-10-02T04:06:06.203Z,14.56
2022-10-02T04:09:51.541Z,14.48
2022-10-02T04:13:16.514Z,14.33
2022-10-02T04:16:42.463Z,14.13
2022-10-02T04:20:12.486Z,14.17
2022-10-02T04:23:39.814Z,14.19
2022-10-02T04:27:01.327Z,14.30
2022-10-02T04:30:23.373Z,14.37
2022-10-02T04:33:44.888Z,14.10
2022-10-02T04:37:18.942Z,14.14
2022-10-02T04:41:02.847Z,14.13
2022-10-02T04:44:45.348Z,13.92
2022-10-02T04:48:19.688Z,13.92
2022-10-02T04:51:44.080Z,13.92
2022-10-02T04:55:59.856Z,13.75
2022-10-02T04:59:33.372Z,13.65
2022-10-02T05:03:03.039Z,13.53
2022-10-02T05:06:26.832Z,13.55
2022-10-02T05:09:58.383Z,13.58
2022-10-02T05:13:32.842Z,13.58
2022-10-02T05:16:54.325Z,13.48
2022-10-02T05:20:48.747Z,13.68
2022-10-02T05:24:12.754Z,13.75
2022-10-02T05:27:55.550Z,13.69
2022-10-02T05:31:31.246Z,13.75
2022-10-02T05:35:16.411Z,13.68
2022-10-02T05:39:13.400Z,13.86
2022-10-02T05:42:59.681Z,13.96
2022-10-02T05:46:30.311Z,14.01
2022-10-02T05:50:03.677Z,14.02
2022-10-02T05:53:38.346Z,14.10
2022-10-02T05:57:19.930Z,14.20
2022-10-02T06:01:09.699Z,14.22
2022-10-02T06:04:39.755Z,14.08
2022-10-02T06:08:03.947Z,14.13
2022-10-02T06:11:32.112Z,14.20
2022-10-02T06:15:02.405Z,14.31
2022-10-02T06:18:29.494Z,14.40
2022-10-02T06:21:56.514Z,14.63
2022-10-02T06:25:27.496Z,14.70
2022-10-02T06:28:53.919Z,14.78
2022-10-02T06:32:22.224Z,14.96
2022-10-02T06:35:46.432Z,15.02
2022-10-02T06:39:20.033Z,15.26
2022-10-02T06:43:14.103Z,15.57
2022-10-02T06:46:51.539Z,15.56
2022-10-02T06:50:38.134Z,15.77
2022-10-02T06:54:17.123Z,15.83
2022-10-02T06:58:09.228Z,15.64
2022-10-02T07:01:57.431Z,15.90
2022-10-02T07:05:40.109Z,16.15
2022-10-02T07:09:07.681Z,16.26
2022-10-02T07:12:35.372Z,16.09
2022-10-02T07:16:11.962Z,16.33
2022-10-02T07:20:29.810Z,16.36
2022-10-02T07:24:04.062Z,16.29
2022-10-02T07:27:37.047Z,16.16
2022-10-02T07:31:09.753Z,16.00
2022-10-02T07:34:31.248Z,16.04
2022-10-02T07:38:01.615Z,16.26
2022-10-02T07:41:53.078Z,16.52
2022-10-02T07:45:39.922Z,16.83
2022-10-02T07:49:01.426Z,17.12
2022-10-02T07:52:42.289Z,17.40
2022-10-02T07:56:08.663Z,17.63
2022-10-02T07:59:34.852Z,17.94
2022-10-02T08:03:01.016Z,17.56
2022-10-02T08:06:25.470Z,17.79
2022-10-02T08:09:51.985Z,17.94
2022-10-02T08:13:21.191Z,17.40
2022-10-02T08:16:48.375Z,17.52
2022-10-02T08:20:35.372Z,17.75
2022-10-02T08:24:04.151Z,17.82
2022-10-02T08:27:31.218Z,17.80
2022-10-02T08:30:56.863Z,17.49
2022-10-02T08:34:21.764Z,17.84
2022-10-02T08:38:10.314Z,18.18
2022-10-02T08:41:56.509Z,18.73
2022-10-02T08:45:51.600Z,18.88
2022-10-02T08:49:47.034Z,18.96
2022-10-02T08:53:38.143Z,19.04
2022-10-02T08:56:59.783Z,18.88
2022-10-02T09:00:58.593Z,19.45
2022-10-02T09:04:40.631Z,19.39
2022-10-02T09:08:09.115Z,19.97
2022-10-02T09:11:47.303Z,19.48
2022-10-02T09:15:53.759Z,19.81
2022-10-02T09:19:36.271Z,19.03
2022-10-02T09:23:00.812Z,19.30
2022-10-02T09:26:32.055Z,19.16
2022-10-02T09:30:35.374Z,19.07
2022-10-02T09:34:39.648Z,18.76
2022-10-02T09:38:21.342Z,18.62
2022-10-02T09:42:01.506Z,18.80
2022-10-02T09:45:44.044Z,19.39
2022-10-02T09:49:36.176Z,19.53
2022-10-02T09:53:19.499Z,19.79
2022-10-02T09:57:08.189Z,19.27
2022-10-02T10:00:57.033Z,18.97
2022-10-02T10:04:21.625Z,18.93
2022-10-02T10:08:09.353Z,19.02
2022-10-02T10:11:34.135Z,19.30
2022-10-02T10:15:09.563Z,19.92
2022-10-02T10:19:06.586Z,20.40
2022-10-02T10:22:28.052Z,20.65
2022-10-02T10:26:04.669Z,20.36
2022-10-02T10:29:45.378Z,20.70
2022-10-02T10:33:37.507Z,21.12
2022-10-02T10:37:23.687Z,20.85
2022-10-02T10:41:23.030Z,20.91
2022-10-02T10:45:22.292Z,20.70
2022-10-02T10:49:02.995Z,20.14
2022-10-02T10:52:45.703Z,20.41
2022-10-02T10:56:46.100Z,19.59
2022-10-02T11:00:41.752Z,18.92
2022-10-02T11:04:26.598Z,18.95
2022-10-02T11:08:13.517Z,18.96
2022-10-02T11:11:52.921Z,18.59
2022-10-02T11:15:29.497Z,18.70
2022-10-02T11:19:26.187Z,18.99
2022-10-02T11:22:53.508Z,19.39
2022-10-02T11:26:25.110Z,19.69
2022-10-02T11:30:05.454Z,18.99
2022-10-02T11:33:36.126Z,18.77
2022-10-02T11:37:24.376Z,19.54
2022-10-02T11:41:15.950Z,20.31
2022-10-02T11:45:14.758Z,20.67
2022-10-02T11:49:09.356Z,21.08
2022-10-02T11:52:30.854Z,21.19
2022-10-02T11:55:59.286Z,21.27
2022-10-02T11:59:42.549Z,21.98
2022-10-02T12:03:36.532Z,21.35
2022-10-02T12:07:31.592Z,21.03
2022-10-02T12:11:11.379Z,21.35
2022-10-02T12:14:42.819Z,20.72
2022-10-02T12:18:20.904Z,20.44
2022-10-02T12:22:09.839Z,20.77
2022-10-02T12:26:16.201Z,20.36
2022-10-02T12:30:04.575Z,20.72
2022-10-02T12:33:59.979Z,19.74
2022-10-02T12:37:58.965Z,19.51
2022-10-02T12:41:23.638Z,19.17
2022-10-02T12:45:50.062Z,18.96
2022-10-02T12:49:39.543Z,18.86
2022-10-02T12:53:16.351Z,18.63
2022-10-02T12:57:10.050Z,18.72
2022-10-02T13:00:49.874Z,18.68
2022-10-02T13:04:50.046Z,18.18
2022-10-02T13:08:18.713Z,18.15
2022-10-02T13:11:58.514Z,17.84
2022-10-02T13:15:34.082Z,17.73
2022-10-02T13:19:20.843Z,17.65
2022-10-02T13:23:06.465Z,17.63
2022-10-02T13:26:49.571Z,17.66
2022-10-02T13:30:18.140Z,17.76
2022-10-02T13:33:48.521Z,17.66
2022-10-02T13:37:29.272Z,17.76
2022-10-02T13:41:28.610Z,17.77
2022-10-02T13:45:13.329Z,17.55
2022-10-02T13:48:55.195Z,17.53
2022-10-02T13:52:52.220Z,17.48
2022-10-02T13:56:33.213Z,17.40
2022-10-02T14:00:11.812Z,17.39
2022-10-02T14:04:04.113Z,17.43
2022-10-02T14:07:53.729Z,17.42
2022-10-02T14:11:29.925Z,17.25
2022-10-02T14:15:03.803Z,18.01
2022-10-02T14:18:56.773Z,17.67
2022-10-02T14:22:36.614Z,17.57
2022-10-02T14:26:18.944Z,17.43
2022-10-02T14:30:07.189Z,17.39
2022-10-02T14:33:53.786Z,17.55
2022-10-02T14:37:18.285Z,17.66
2022-10-02T14:40:52.131Z,17.39
2022-10-02T14:44:49.312Z,17.19
2022-10-02T14:48:29.073Z,17.22
2022-10-02T14:52:09.981Z,17.11
2022-10-02T14:55:52.434Z,17.01
2022-10-02T14:59:22.571Z,17.03
2022-10-02T15:03:23.410Z,16.90
2022-10-02T15:06:46.286Z,16.94
2022-10-02T15:10:17.064Z,16.79
2022-10-02T15:13:46.600Z,16.83
2022-10-02T15:17:34.113Z,16.85
2022-10-02T15:20:59.294Z,16.80
2022-10-02T15:25:06.626Z,16.49
2022-10-02T15:28:56.982Z,16.63
2022-10-02T15:32:35.980Z,16.59
2022-10-02T15:36:19.480Z,16.53
2022-10-02T15:39:55.285Z,16.32
2022-10-02T15:43:16.858Z,16.34
2022-10-02T15:46:59.490Z,16.21
2022-10-02T15:50:45.166Z,16.12
2022-10-02T15:54:15.981Z,16.09
2022-10-02T15:58:06.166Z,16.18
2022-10-02T16:01:43.813Z,16.15
2022-10-02T16:05:11.146Z,16.18
2022-10-02T16:09:02.383Z,16.18
2022-10-02T16:12:54.822Z,16.18
2022-10-02T16:16:20.225Z,16.04
2022-10-02T16:19:50.671Z,15.97
2022-10-02T16:23:27.471Z,16.00
2022-10-02T16:27:20.083Z,15.88
2022-10-02T16:31:06.956Z,15.80
2022-10-02T16:34:47.312Z,15.85
2022-10-02T16:38:44.059Z,15.97
2022-10-02T16:42:30.556Z,16.09
2022-10-02T16:46:10.538Z,15.91
2022-10-02T16:49:42.673Z,15.85
2022-10-02T16:53:15.193Z,15.83
2022-10-02T16:56:45.525Z,15.80
2022-10-02T17:00:16.313Z,15.56
2022-10-02T17:03:54.543Z,15.58
2022-10-02T17:07:18.363Z,15.51
2022-10-02T17:11:20.282Z,15.58
2022-10-02T17:15:17.175Z,15.66
2022-10-02T17:18:42.582Z,15.63
2022-10-02T17:22:11.755Z,15.64
2022-10-02T17:25:50.511Z,15.70
2022-10-02T17:29:22.905Z,15.60
2022-10-02T17:32:51.556Z,15.71
2022-10-02T17:36:30.229Z,15.87
2022-10-02T17:39:57.660Z,15.93
2022-10-02T17:43:31.502Z,15.97
2022-10-02T17:47:11.329Z,15.91
2022-10-02T17:50:54.510Z,15.94
2022-10-02T17:55:08.711Z,15.67
2022-10-02T17:58:41.968Z,15.71
2022-10-02T18:02:19.724Z,15.67
2022-10-02T18:05:56.532Z,15.47
2022-10-02T18:09:24.793Z,15.54
2022-10-02T18:12:55.562Z,15.51
2022-10-02T18:16:29.718Z,15.35
2022-10-02T18:20:19.446Z,15.27
2022-10-02T18:24:18.137Z,15.39
2022-10-02T18:28:17.078Z,15.50
2022-10-02T18:32:29.860Z,15.47
2022-10-02T18:36:05.142Z,15.46
2022-10-02T18:39:40.759Z,15.47
2022-10-02T18:43:34.992Z,15.42
2022-10-02T18:47:08.910Z,15.33
2022-10-02T18:50:52.236Z,15.39
2022-10-02T18:54:35.055Z,15.30
2022-10-02T18:58:04.464Z,15.29
2022-10-02T19:01:49.851Z,15.37
2022-10-02T19:05:20.072Z,15.49
2022-10-02T19:09:04.036Z,15.61
2022-10-02T19:12:30.909Z,15.63
2022-10-02T19:15:58.550Z,15.70
2022-10-02T19:19:25.290Z,15.80
2022-10-02T19:22:51.229Z,15.91
2022-10-02T19:26:20.160Z,15.88
2022-10-02T19:29:54.438Z,15.75
2022-10-02T19:33:41.203Z,15.70
2022-10-02T19:37:07.991Z,15.53
2022-10-02T19:40:37.899Z,15.37
2022-10-02T19:44:06.701Z,15.46
2022-10-02T19:47:31.829Z,15.50
2022-10-02T19:51:00.977Z,15.47
2022-10-02T19:54:37.088Z,15.44
2022-10-02T19:58:14.112Z,15.47
2022-10-02T20:01:55.782Z,15.61
2022-10-02T20:05:30.033Z,15.53
2022-10-02T20:08:57.908Z,15.51
2022-10-02T20:12:27.059Z,15.63
2022-10-02T20:16:46.149Z,15.60
2022-10-02T20:20:16.661Z,15.32
2022-10-02T20:23:42.570Z,15.37
2022-10-02T20:27:37.163Z,15.33
2022-10-02T20:31:04.111Z,15.36
2022-10-02T20:34:43.777Z,15.50
2022-10-02T20:38:16.754Z,15.58
2022-10-02T20:42:00.711Z,15.43
2022-10-02T20:45:29.449Z,15.49
2022-10-02T20:49:45.378Z,15.54
2022-10-02T20:53:27.917Z,15.64
2022-10-02T20:57:14.681Z,15.67
2022-10-02T21:01:14.869Z,15.70
2022-10-02T21:04:36.390Z,15.66
2022-10-02T21:08:20.575Z,15.56
2022-10-02T21:11:56.067Z,15.43
2022-10-02T21:15:51.828Z,15.47
2022-10-02T21:19:41.852Z,15.37
2022-10-02T21:23:40.579Z,15.32
2022-10-02T21:27:22.340Z,15.42
2022-10-02T21:31:00.048Z,15.36
2022-10-02T21:34:41.627Z,15.27
2022-10-02T21:38:21.523Z,14.96
2022-10-02T21:42:35.136Z,14.96
2022-10-02T21:46:35.912Z,15.00
2022-10-02T21:50:31.606Z,15.08
2022-10-02T21:54:05.299Z,15.25
2022-10-02T21:57:43.099Z,15.33
2022-10-02T22:01:26.273Z,15.39
2022-10-02T22:05:02.155Z,15.40
2022-10-02T22:08:51.633Z,15.36
2022-10-02T22:12:15.248Z,15.32
2022-10-02T22:15:37.721Z,15.36
2022-10-02T22:19:09.267Z,15.33
2022-10-02T22:23:18.267Z,15.25
2022-10-02T22:26:51.895Z,15.27
2022-10-02T22:30:26.024Z,15.16
2022-10-02T22:34:02.587Z,15.12
2022-10-02T22:38:04.344Z,14.82
2022-10-02T22:41:38.510Z,14.67
2022-10-02T22:45:16.696Z,14.54
2022-10-02T22:48:45.642Z,14.67
2022-10-02T22:52:37.907Z,14.70
2022-10-02T22:56:01.731Z,14.54
2022-10-02T22:59:53.985Z,14.48
2022-10-02T23:03:20.691Z,14.68
2022-10-02T23:06:51.210Z,14.63
2022-10-02T23:10:13.457Z,14.68
2022-10-02T23:14:15.038Z,14.72
2022-10-02T23:17:39.517Z,14.87
2022-10-02T23:21:13.317Z,14.77
2022-10-02T23:24:45.194Z,14.77
2022-10-02T23:28:16.138Z,14.78
2022-10-02T23:32:08.502Z,14.79
2022-10-02T23:35:49.464Z,14.84
2022-10-02T23:39:31.605Z,14.91
2022-10-02T23:43:01.768Z,14.95
2022-10-02T23:46:32.252Z,14.75
2022-10-02T23:49:58.958Z,14.78
2022-10-02T23:53:27.397Z,14.74
2022-10-02T23:57:07.582Z,14.29
